Time;durP1;ratioP1;P1;durP2;ratioP2;P2;SDS_P1;SDS_P2;PMS_P1;PMS_P2;Temp;Humidity;BMP_temperature;BMP_pressure;BME280_temperature;BME280_humidity;BME280_pressure;Samples;Min_cycle;Max_cycle;Signal;HPM_P1;HPM_P2
2022/10/06 04:31:46;;;;;;;;;2.67;0.67;;;;;;;;5379190;22;46343;-62
2022/10/06 04:34:14;;;;;;;;;4.33;1.67;;;;;;;;5042973;28;45251;-62
2022/10/06 04:36:40;;;;;;;;;5.00;1.67;;;;;;;;5043308;28;45424;-62
2022/10/06 04:39:06;;;;;;;;;3.00;2.00;;;;;;;;5047827;28;46297;-62
2022/10/06 04:41:35;;;;;;;;;2.33;1.33;;;;;;;;5053099;28;45458;-62
2022/10/06 04:44:00;;;;;;;;;5.67;2.00;;;;;;;;5044682;28;45710;-62
2022/10/06 04:46:27;;;;;;;;;3.33;0.67;;;;;;;;5047740;28;46681;-62
2022/10/06 04:48:52;;;;;;;;;2.67;2.33;;;;;;;;5045948;28;45423;-62
2022/10/06 04:51:18;;;;;;;;;4.33;2.33;;;;;;;;5048299;28;45407;-61
2022/10/06 04:53:44;;;;;;;;;7.00;2.67;;;;;;;;5047151;28;45433;-61
2022/10/06 04:56:11;;;;;;;;;2.33;1.00;;;;;;;;5050947;28;45398;-61
2022/10/06 04:58:37;;;;;;;;;5.00;2.67;;;;;;;;5045611;28;45450;-61
2022/10/06 05:01:04;;;;;;;;;8.67;4.00;;;;;;;;5052906;28;45277;-61
2022/10/06 05:03:30;;;;;;;;;5.67;5.67;;;;;;;;5043290;28;45272;-61
2022/10/06 05:06:05;;;;;;;;;7.00;5.33;;;;;;;;5052867;28;45397;-61
2022/10/06 05:08:31;;;;;;;;;6.33;4.00;;;;;;;;5046837;28;47451;-61
2022/10/06 05:11:00;;;;;;;;;6.00;4.00;;;;;;;;5052967;28;45559;-61
2022/10/06 05:13:25;;;;;;;;;6.00;3.00;;;;;;;;5048759;28;45489;-61
2022/10/06 05:15:55;;;;;;;;;5.33;3.00;;;;;;;;5049543;28;45443;-61
2022/10/06 05:18:20;;;;;;;;;9.00;3.33;;;;;;;;5054732;28;46090;-62
2022/10/06 05:20:53;;;;;;;;;4.00;3.00;;;;;;;;5048087;28;45410;-61
2022/10/06 05:23:18;;;;;;;;;4.00;2.67;;;;;;;;5047848;28;45502;-61
2022/10/06 05:25:51;;;;;;;;;4.67;3.00;;;;;;;;5045366;28;45293;-61
2022/10/06 05:28:16;;;;;;;;;2.00;2.00;;;;;;;;5046173;28;46091;-61
2022/10/06 05:30:41;;;;;;;;;4.33;2.67;;;;;;;;5050954;28;45376;-61
2022/10/06 05:33:06;;;;;;;;;3.00;1.33;;;;;;;;5051711;28;45264;-61
2022/10/06 05:35:32;;;;;;;;;2.33;2.33;;;;;;;;5045383;28;45479;-61
2022/10/06 05:37:57;;;;;;;;;5.00;2.67;;;;;;;;5045491;28;46362;-62
2022/10/06 05:40:23;;;;;;;;;5.67;3.00;;;;;;;;5044726;28;45639;-62
2022/10/06 05:42:48;;;;;;;;;7.00;4.00;;;;;;;;5045623;28;45580;-61
2022/10/06 05:45:13;;;;;;;;;4.00;2.00;;;;;;;;5049143;28;45506;-61
2022/10/06 05:47:41;;;;;;;;;7.33;3.00;;;;;;;;5048602;28;46719;-61
2022/10/06 05:50:06;;;;;;;;;6.00;3.00;;;;;;;;5051526;28;45585;-61
2022/10/06 05:52:31;;;;;;;;;5.33;2.67;;;;;;;;5049615;28;45404;-61
2022/10/06 05:54:57;;;;;;;;;6.67;3.33;;;;;;;;5045212;28;45660;-61
2022/10/06 05:57:22;;;;;;;;;4.00;4.00;;;;;;;;5042901;28;46170;-61
2022/10/06 05:59:47;;;;;;;;;4.00;1.67;;;;;;;;5046864;28;45304;-61
2022/10/06 06:02:12;;;;;;;;;6.33;4.00;;;;;;;;5047450;28;45311;-61
2022/10/06 06:04:38;;;;;;;;;6.33;4.00;;;;;;;;5050142;28;45455;-61
2022/10/06 06:07:03;;;;;;;;;5.67;3.00;;;;;;;;5040060;28;45506;-61
2022/10/06 06:09:28;;;;;;;;;7.33;4.00;;;;;;;;5052198;28;45422;-61
2022/10/06 06:11:53;;;;;;;;;3.67;2.33;;;;;;;;5049889;28;45410;-62
2022/10/06 06:15:59;;;;;;;;;3.33;2.67;;;;;;;;5054878;28;45546;-62
2022/10/06 06:17:08;;;;;;;;;8.67;2.33;;;;;;;;5049121;28;45802;-62
2022/10/06 06:19:33;;;;;;;;;3.00;0.00;;;;;;;;5052188;28;45683;-61
2022/10/06 06:21:58;;;;;;;;;5.67;3.00;;;;;;;;5045138;28;45715;-61
2022/10/06 06:24:23;;;;;;;;;4.67;3.00;;;;;;;;5056568;28;45669;-61
2022/10/06 06:26:48;;;;;;;;;3.00;3.00;;;;;;;;5059612;28;46277;-61
2022/10/06 06:29:14;;;;;;;;;5.00;3.00;;;;;;;;5058682;28;45342;-61
2022/10/06 06:32:16;;;;;;;;;6.00;4.00;;;;;;;;5048850;28;45141;-62
2022/10/06 06:34:41;;;;;;;;;9.00;5.33;;;;;;;;5049977;28;45300;-61
2022/10/06 06:37:08;;;;;;;;;8.00;5.00;;;;;;;;5054350;28;46287;-62
2022/10/06 06:39:33;;;;;;;;;8.33;4.33;;;;;;;;5059213;28;45392;-63
2022/10/06 06:42:00;;;;;;;;;4.33;3.00;;;;;;;;5056142;28;45385;-62
2022/10/06 06:44:26;;;;;;;;;8.00;4.33;;;;;;;;5059205;28;45509;-63
2022/10/06 06:46:51;;;;;;;;;9.00;5.00;;;;;;;;5049356;28;46627;-62
2022/10/06 06:49:17;;;;;;;;;5.00;4.00;;;;;;;;5055680;28;45398;-62
2022/10/06 06:51:43;;;;;;;;;8.67;6.00;;;;;;;;5056399;28;45462;-62
2022/10/06 06:54:09;;;;;;;;;7.33;4.67;;;;;;;;5058710;28;45368;-62
2022/10/06 06:56:35;;;;;;;;;4.67;3.67;;;;;;;;5053080;28;46195;-62
2022/10/06 06:59:00;;;;;;;;;7.67;4.33;;;;;;;;5057650;28;45300;-62
2022/10/06 07:01:27;;;;;;;;;5.00;5.00;;;;;;;;5052450;28;45461;-62
2022/10/06 07:03:54;;;;;;;;;7.67;5.33;;;;;;;;5048304;28;45677;-63
2022/10/06 07:06:19;;;;;;;;;7.33;4.67;;;;;;;;5054162;28;46403;-63
2022/10/06 07:08:45;;;;;;;;;3.67;2.67;;;;;;;;5049253;28;45250;-63
2022/10/06 07:11:15;;;;;;;;;3.67;3.33;;;;;;;;5040473;28;45484;-61
2022/10/06 07:13:41;;;;;;;;;6.67;6.67;;;;;;;;5045857;28;45470;-62
2022/10/06 07:27:04;;;;;;;;;8.67;3.33;;;;;;;;5057552;28;45364;-61
2022/10/06 07:29:30;;;;;;;;;6.00;3.00;;;;;;;;5054618;28;45308;-61
2022/10/06 07:31:55;;;;;;;;;5.67;3.67;;;;;;;;5058349;28;45459;-61
2022/10/06 07:34:21;;;;;;;;;5.67;4.67;;;;;;;;5051875;28;45593;-61
2022/10/06 07:36:47;;;;;;;;;4.00;0.67;;;;;;;;5056868;28;46172;-61
2022/10/06 07:39:12;;;;;;;;;3.67;2.67;;;;;;;;5056002;28;45232;-61
2022/10/06 07:41:37;;;;;;;;;3.67;2.33;;;;;;;;5053302;28;45380;-61
2022/10/06 07:44:04;;;;;;;;;7.67;5.33;;;;;;;;5055386;28;45465;-60
2022/10/06 07:46:29;;;;;;;;;7.33;5.33;;;;;;;;5053666;28;46156;-61
2022/10/06 07:48:55;;;;;;;;;5.33;2.00;;;;;;;;5053128;28;45371;-62
2022/10/06 07:51:20;;;;;;;;;9.33;4.33;;;;;;;;5053724;28;45262;-61
2022/10/06 07:53:49;;;;;;;;;11.33;2.67;;;;;;;;5044955;28;45467;-61
2022/10/06 07:56:14;;;;;;;;;5.67;2.33;;;;;;;;5051508;28;46294;-61
2022/10/06 07:58:40;;;;;;;;;5.33;3.00;;;;;;;;5037254;28;45461;-62
2022/10/06 08:01:06;;;;;;;;;2.00;2.00;;;;;;;;5048946;28;45353;-61
2022/10/06 08:03:31;;;;;;;;;2.00;2.00;;;;;;;;5059101;28;45347;-61
2022/10/06 08:05:58;;;;;;;;;6.33;2.67;;;;;;;;5055753;28;46091;-61
2022/10/06 08:08:23;;;;;;;;;3.33;2.00;;;;;;;;5056777;28;45257;-62
2022/10/06 08:10:53;;;;;;;;;1.33;0.33;;;;;;;;5057062;28;45283;-62
2022/10/06 08:13:18;;;;;;;;;5.00;3.67;;;;;;;;5058858;28;45331;-62
2022/10/06 08:15:43;;;;;;;;;3.00;2.00;;;;;;;;5053241;28;46263;-61
2022/10/06 08:18:08;;;;;;;;;2.67;2.00;;;;;;;;5051940;28;45320;-61
2022/10/06 08:20:34;;;;;;;;;3.67;2.33;;;;;;;;5042461;28;45359;-61
2022/10/06 08:22:59;;;;;;;;;5.33;3.33;;;;;;;;5043933;28;45538;-61
2022/10/06 08:25:24;;;;;;;;;1.67;0.00;;;;;;;;5045119;28;45542;-61
2022/10/06 08:27:49;;;;;;;;;4.33;2.00;;;;;;;;5049095;28;45976;-61
2022/10/06 08:30:15;;;;;;;;;3.67;2.33;;;;;;;;5051428;28;45343;-61
2022/10/06 08:32:41;;;;;;;;;5.00;2.00;;;;;;;;5053972;28;45276;-61
2022/10/06 08:35:07;;;;;;;;;7.67;2.00;;;;;;;;5057313;28;46319;-61
2022/10/06 08:37:32;;;;;;;;;6.00;3.00;;;;;;;;5050449;28;45577;-62
2022/10/06 08:39:57;;;;;;;;;4.33;2.33;;;;;;;;5045190;28;45225;-61
2022/10/06 08:42:25;;;;;;;;;4.33;2.00;;;;;;;;5056207;28;45539;-61
2022/10/06 08:44:55;;;;;;;;;3.00;1.00;;;;;;;;5047403;28;47086;-62
2022/10/06 08:47:21;;;;;;;;;3.33;3.00;;;;;;;;5049442;28;45469;-61
2022/10/06 08:49:47;;;;;;;;;4.00;2.33;;;;;;;;5043575;28;45387;-61
2022/10/06 08:52:27;;;;;;;;;1.67;1.00;;;;;;;;5047112;28;45308;-62
2022/10/06 08:54:57;;;;;;;;;1.00;1.00;;;;;;;;5051357;28;46243;-61
2022/10/06 08:57:30;;;;;;;;;3.00;1.00;;;;;;;;5048891;28;45542;-61
2022/10/06 08:59:56;;;;;;;;;2.67;2.33;;;;;;;;5042764;28;45644;-61
2022/10/06 09:02:26;;;;;;;;;6.00;2.33;;;;;;;;5044754;28;45502;-61
2022/10/06 09:04:52;;;;;;;;;1.67;1.67;;;;;;;;5052756;28;46582;-61
2022/10/06 09:07:23;;;;;;;;;5.00;3.00;;;;;;;;5057744;28;45464;-61
2022/10/06 09:09:52;;;;;;;;;4.67;3.67;;;;;;;;5056588;28;45221;-61
2022/10/06 09:12:36;;;;;;;;;4.00;2.00;;;;;;;;5060244;28;45649;-62
2022/10/06 09:15:05;;;;;;;;;1.67;1.00;;;;;;;;5053135;28;46257;-62
2022/10/06 09:17:34;;;;;;;;;8.67;3.33;;;;;;;;5037255;28;45505;-63
2022/10/06 09:20:02;;;;;;;;;3.33;2.00;;;;;;;;5047901;28;45437;-63
2022/10/06 09:22:29;;;;;;;;;6.33;3.00;;;;;;;;5052161;28;45637;-61
2022/10/06 09:24:57;;;;;;;;;3.00;3.00;;;;;;;;5034957;28;48344;-63
2022/10/06 09:27:27;;;;;;;;;2.50;1.50;;;;;;;;5042472;28;45781;-62
2022/10/06 09:29:53;;;;;;;;;3.00;2.00;;;;;;;;5056819;28;45394;-62
2022/10/06 09:32:19;;;;;;;;;5.00;2.00;;;;;;;;5055950;28;45644;-62
2022/10/06 09:34:49;;;;;;;;;5.75;1.50;;;;;;;;5055967;28;46304;-62
2022/10/06 09:37:15;;;;;;;;;1.25;1.25;;;;;;;;5053939;28;45479;-62
2022/10/06 09:39:41;;;;;;;;;1.00;1.00;;;;;;;;5050843;28;45436;-62
2022/10/06 09:42:16;;;;;;;;;1.00;0.25;;;;;;;;5051260;28;45415;-62
2022/10/06 09:44:50;;;;;;;;;7.00;2.00;;;;;;;;5054448;28;45613;-62
2022/10/06 09:47:21;;;;;;;;;2.00;0.40;;;;;;;;5057580;28;45714;-62
2022/10/06 09:50:05;;;;;;;;;3.00;0.25;;;;;;;;5053994;28;45264;-63
2022/10/06 09:52:30;;;;;;;;;4.75;0.50;;;;;;;;5056348;28;45682;-63
2022/10/06 09:55:08;;;;;;;;;0.75;0.00;;;;;;;;5042952;28;46403;-63
2022/10/06 09:57:35;;;;;;;;;4.50;0.25;;;;;;;;5058716;28;45384;-63
2022/10/06 10:00:00;;;;;;;;;6.75;4.50;;;;;;;;5057953;28;45366;-63
2022/10/06 10:02:35;;;;;;;;;4.50;3.50;;;;;;;;5060160;28;45666;-63
2022/10/06 10:05:01;;;;;;;;;5.75;2.25;;;;;;;;5058988;28;46185;-63
2022/10/06 10:07:28;;;;;;;;;2.75;1.25;;;;;;;;5055642;28;45451;-63
2022/10/06 10:10:08;;;;;;;;;3.25;0.25;;;;;;;;5054375;28;45368;-63
2022/10/06 10:12:34;;;;;;;;;2.00;1.00;;;;;;;;5039935;28;45549;-63
2022/10/06 10:15:21;;;;;;;;;1.25;1.00;;;;;;;;5045050;28;46159;-63
2022/10/06 10:17:48;;;;;;;;;1.60;1.20;;;;;;;;5041684;28;45462;-63
2022/10/06 10:20:36;;;;;;;;;3.00;1.75;;;;;;;;5045997;28;45395;-63
2022/10/06 10:23:04;;;;;;;;;1.75;1.00;;;;;;;;5042528;28;45870;-63
2022/10/06 10:25:46;;;;;;;;;1.75;0.00;;;;;;;;5045351;28;45340;-63
2022/10/06 10:28:16;;;;;;;;;2.25;1.25;;;;;;;;5048053;28;45231;-63
2022/10/06 10:31:00;;;;;;;;;1.80;1.40;;;;;;;;5048168;28;45429;-62
2022/10/06 10:33:40;;;;;;;;;1.75;0.25;;;;;;;;5047154;28;45307;-63
2022/10/06 10:36:07;;;;;;;;;0.75;0.50;;;;;;;;5048568;28;46231;-63
2022/10/06 10:38:39;;;;;;;;;1.80;0.80;;;;;;;;5053256;28;45426;-63
2022/10/06 10:41:10;;;;;;;;;3.25;1.00;;;;;;;;5042349;28;45483;-63
2022/10/06 10:43:47;;;;;;;;;4.25;0.50;;;;;;;;5042545;28;45372;-63
2022/10/06 10:46:15;;;;;;;;;1.00;0.25;;;;;;;;5060132;28;46155;-63
2022/10/06 10:48:40;;;;;;;;;0.80;0.00;;;;;;;;5059317;28;45271;-63
2022/10/06 10:51:08;;;;;;;;;1.50;0.00;;;;;;;;5048939;28;45287;-63
2022/10/06 10:53:36;;;;;;;;;5.25;3.50;;;;;;;;5055853;28;45785;-63
2022/10/06 10:56:02;;;;;;;;;5.00;1.00;;;;;;;;5051612;28;46344;-63
2022/10/06 10:58:34;;;;;;;;;6.00;5.75;;;;;;;;5058906;28;45303;-63
2022/10/06 11:01:04;;;;;;;;;1.00;1.00;;;;;;;;5048171;28;45374;-63
2022/10/06 11:03:29;;;;;;;;;2.00;0.25;;;;;;;;5052848;28;46087;-63
2022/10/06 11:06:01;;;;;;;;;3.50;1.25;;;;;;;;5059584;28;46972;-63
2022/10/06 11:08:32;;;;;;;;;3.75;1.50;;;;;;;;5052913;28;45306;-63
2022/10/06 11:10:59;;;;;;;;;2.25;0.25;;;;;;;;5051902;28;45309;-64
2022/10/06 11:13:30;;;;;;;;;2.00;0.00;;;;;;;;5054848;28;45544;-64
2022/10/06 11:16:16;;;;;;;;;5.50;3.00;;;;;;;;5056613;28;45361;-64
2022/10/06 11:18:44;;;;;;;;;2.75;0.50;;;;;;;;5029644;28;46442;-64
2022/10/06 11:21:26;;;;;;;;;1.25;0.00;;;;;;;;5045725;28;45257;-63
2022/10/06 11:23:54;;;;;;;;;3.75;1.00;;;;;;;;5059228;28;45371;-64
2022/10/06 11:26:23;;;;;;;;;4.25;0.75;;;;;;;;5051556;28;45292;-63
2022/10/06 11:28:57;;;;;;;;;0.80;0.80;;;;;;;;5041269;28;45264;-63
2022/10/06 11:31:22;;;;;;;;;0.00;0.00;;;;;;;;5046339;28;45358;-64
2022/10/06 11:33:54;;;;;;;;;1.50;0.25;;;;;;;;5057267;28;45411;-62
2022/10/06 11:36:31;;;;;;;;;0.00;0.00;;;;;;;;5041405;28;45351;-62
2022/10/06 11:39:00;;;;;;;;;1.00;0.00;;;;;;;;5050900;28;45363;-62
2022/10/06 11:41:31;;;;;;;;;0.00;0.00;;;;;;;;5058147;28;45666;-62
2022/10/06 11:44:03;;;;;;;;;0.00;0.00;;;;;;;;5055509;28;45404;-62
2022/10/06 11:46:35;;;;;;;;;2.50;0.25;;;;;;;;5054374;28;46397;-63
2022/10/06 11:49:20;;;;;;;;;1.00;0.75;;;;;;;;5048930;28;45433;-62
2022/10/06 11:51:45;;;;;;;;;0.00;0.00;;;;;;;;5033171;28;45487;-62
2022/10/06 11:54:49;;;;;;;;;1.25;0.00;;;;;;;;5050229;28;45542;-62
2022/10/06 11:57:25;;;;;;;;;4.00;0.75;;;;;;;;4984800;28;45553;-62
2022/10/06 11:59:54;;;;;;;;;0.00;0.00;;;;;;;;4965030;28;45459;-62
2022/10/06 12:02:31;;;;;;;;;3.00;3.00;;;;;;;;5022668;28;45412;-63
2022/10/06 12:05:08;;;;;;;;;3.50;2.75;;;;;;;;5057894;28;45357;-63
2022/10/06 12:07:52;;;;;;;;;1.00;1.00;;;;;;;;5041699;28;46349;-63
2022/10/06 12:10:26;;;;;;;;;2.25;0.25;;;;;;;;5043538;28;45493;-63
2022/10/06 12:12:53;;;;;;;;;5.00;1.00;;;;;;;;5040817;28;45394;-62
2022/10/06 12:15:21;;;;;;;;;1.00;0.00;;;;;;;;5048078;28;45412;-62
2022/10/06 12:17:49;;;;;;;;;0.75;0.50;;;;;;;;5044816;28;45479;-62
2022/10/06 12:20:17;;;;;;;;;1.25;1.25;;;;;;;;5051179;28;45309;-62
2022/10/06 12:22:49;;;;;;;;;2.00;0.00;;;;;;;;5038765;28;45284;-62
2022/10/06 12:25:31;;;;;;;;;1.00;1.00;;;;;;;;5039318;28;45311;-63
2022/10/06 12:28:15;;;;;;;;;0.75;0.00;;;;;;;;5056023;28;45403;-62
2022/10/06 12:30:59;;;;;;;;;2.00;1.00;;;;;;;;5056514;28;45591;-63
2022/10/06 12:33:38;;;;;;;;;1.50;1.00;;;;;;;;5057431;28;45401;-63
2022/10/06 12:36:04;;;;;;;;;2.50;2.50;;;;;;;;5042512;28;45714;-63
2022/10/06 12:38:29;;;;;;;;;3.75;1.00;;;;;;;;5058450;28;46919;-63
2022/10/06 12:40:55;;;;;;;;;2.00;1.50;;;;;;;;5062137;28;45576;-63
2022/10/06 12:43:21;;;;;;;;;1.00;1.00;;;;;;;;5065669;28;45414;-63
2022/10/06 12:45:49;;;;;;;;;2.50;0.75;;;;;;;;5059317;28;45359;-63
2022/10/06 12:48:33;;;;;;;;;2.00;0.50;;;;;;;;5063710;28;46141;-64
2022/10/06 12:51:04;;;;;;;;;1.50;1.00;;;;;;;;5062225;28;45315;-63
2022/10/06 12:53:38;;;;;;;;;0.00;0.00;;;;;;;;5061600;28;45298;-62
2022/10/06 12:56:05;;;;;;;;;1.00;0.00;;;;;;;;5063459;28;45470;-62
2022/10/06 12:58:32;;;;;;;;;1.25;1.00;;;;;;;;5052427;28;46151;-62
2022/10/06 13:00:59;;;;;;;;;1.00;0.00;;;;;;;;5050311;28;45346;-62
2022/10/06 13:03:24;;;;;;;;;1.00;1.00;;;;;;;;5052883;28;45292;-62
2022/10/06 13:05:51;;;;;;;;;1.00;1.00;;;;;;;;5054544;28;45349;-63
2022/10/06 13:08:21;;;;;;;;;1.50;1.25;;;;;;;;5061906;28;45299;-62
2022/10/06 13:10:46;;;;;;;;;3.50;3.50;;;;;;;;5059622;28;45385;-62
2022/10/06 13:13:23;;;;;;;;;3.75;1.00;;;;;;;;5060234;28;45605;-63
2022/10/06 13:15:49;;;;;;;;;7.50;2.00;;;;;;;;5051372;28;47147;-63
2022/10/06 13:18:15;;;;;;;;;4.75;1.00;;;;;;;;5052593;28;45429;-63
2022/10/06 13:20:48;;;;;;;;;1.50;0.25;;;;;;;;5053132;28;45338;-63
2022/10/06 13:23:14;;;;;;;;;3.00;2.00;;;;;;;;5051314;28;45419;-63
2022/10/06 13:25:47;;;;;;;;;0.75;0.75;;;;;;;;5057731;28;45368;-63
2022/10/06 13:28:26;;;;;;;;;6.00;2.00;;;;;;;;5061726;28;45347;-63
2022/10/06 13:30:51;;;;;;;;;1.50;1.00;;;;;;;;5058184;28;45412;-63
2022/10/06 13:33:17;;;;;;;;;0.00;0.00;;;;;;;;5059734;28;45449;-63
2022/10/06 13:35:43;;;;;;;;;3.75;2.00;;;;;;;;5055025;28;45311;-63
2022/10/06 13:38:08;;;;;;;;;1.75;0.50;;;;;;;;5059338;28;46838;-63
2022/10/06 13:40:34;;;;;;;;;2.00;1.50;;;;;;;;5064059;28;45374;-63
2022/10/06 13:43:00;;;;;;;;;1.00;1.00;;;;;;;;5062249;28;45661;-63
2022/10/06 13:45:26;;;;;;;;;2.50;1.00;;;;;;;;5052389;28;45210;-63
2022/10/06 13:48:02;;;;;;;;;2.50;1.00;;;;;;;;5055139;28;46138;-63
2022/10/06 13:50:27;;;;;;;;;2.25;0.75;;;;;;;;5055284;28;45382;-63
2022/10/06 13:52:52;;;;;;;;;3.00;1.25;;;;;;;;5051183;28;45495;-63
2022/10/06 13:55:20;;;;;;;;;3.00;1.00;;;;;;;;5047602;28;45320;-63
2022/10/06 13:57:46;;;;;;;;;0.75;0.00;;;;;;;;5061038;28;46312;-63
2022/10/06 14:00:15;;;;;;;;;2.00;0.25;;;;;;;;5058329;28;45275;-63
2022/10/06 14:02:41;;;;;;;;;1.75;0.00;;;;;;;;5052865;28;45369;-63
2022/10/06 14:05:25;;;;;;;;;3.75;0.00;;;;;;;;5053102;28;45366;-63
2022/10/06 14:07:51;;;;;;;;;3.75;2.00;;;;;;;;5054347;28;46311;-63
2022/10/06 14:10:21;;;;;;;;;1.00;0.25;;;;;;;;5051151;28;45372;-63
2022/10/06 14:12:47;;;;;;;;;3.25;0.25;;;;;;;;5041303;28;45570;-63
2022/10/06 14:15:20;;;;;;;;;2.00;0.25;;;;;;;;5046941;28;45411;-63
2022/10/06 14:17:51;;;;;;;;;0.00;0.00;;;;;;;;5053951;28;46328;-63
2022/10/06 14:20:36;;;;;;;;;0.25;0.25;;;;;;;;5046704;28;45413;-63
2022/10/06 14:23:01;;;;;;;;;0.00;0.00;;;;;;;;5046042;28;45484;-63
2022/10/06 14:25:26;;;;;;;;;0.00;0.00;;;;;;;;5046668;28;45509;-63
2022/10/06 14:27:51;;;;;;;;;1.00;1.00;;;;;;;;5044613;28;46050;-62
2022/10/06 14:30:17;;;;;;;;;2.25;2.00;;;;;;;;5058461;28;45662;-62
2022/10/06 14:32:42;;;;;;;;;1.00;1.00;;;;;;;;5052816;28;45375;-62
2022/10/06 14:35:09;;;;;;;;;2.75;0.00;;;;;;;;5048827;28;45552;-62
2022/10/06 14:37:34;;;;;;;;;0.75;0.00;;;;;;;;5046900;28;46113;-62
2022/10/06 14:40:00;;;;;;;;;0.00;0.00;;;;;;;;5049989;28;45567;-62
2022/10/06 14:42:25;;;;;;;;;1.00;1.00;;;;;;;;5057899;28;45466;-62
2022/10/06 14:44:50;;;;;;;;;2.50;1.00;;;;;;;;5037442;28;45802;-62
2022/10/06 14:47:15;;;;;;;;;2.50;2.00;;;;;;;;5053543;28;46681;-62
2022/10/06 14:49:41;;;;;;;;;2.00;0.00;;;;;;;;5054256;28;45430;-62
2022/10/06 14:52:09;;;;;;;;;1.25;0.00;;;;;;;;5057683;28;45748;-62
2022/10/06 14:54:34;;;;;;;;;1.00;0.25;;;;;;;;5050475;28;45534;-62
2022/10/06 14:56:59;;;;;;;;;1.75;1.00;;;;;;;;5047635;28;45674;-62
2022/10/06 14:59:25;;;;;;;;;2.25;1.00;;;;;;;;5052151;28;47702;-63
2022/10/06 15:01:50;;;;;;;;;1.50;0.50;;;;;;;;5032875;28;45571;-63
2022/10/06 15:04:23;;;;;;;;;1.50;0.25;;;;;;;;5048906;28;45233;-63
2022/10/06 15:09:32;;;;;;;;;1.75;0.00;;;;;;;;5055308;28;45358;-63
2022/10/06 15:11:58;;;;;;;;;1.25;0.25;;;;;;;;5046752;28;45548;-63
2022/10/06 15:14:23;;;;;;;;;4.75;1.00;;;;;;;;5030182;28;45606;-63
2022/10/06 15:16:48;;;;;;;;;0.00;0.00;;;;;;;;5053810;28;46248;-63
2022/10/06 15:19:14;;;;;;;;;1.00;1.00;;;;;;;;5053617;28;45390;-63
2022/10/06 15:21:40;;;;;;;;;1.75;1.00;;;;;;;;5042417;28;45348;-63
2022/10/06 15:24:06;;;;;;;;;0.50;0.50;;;;;;;;5055220;28;45392;-63
2022/10/06 15:29:16;;;;;;;;;1.75;1.75;;;;;;;;5050777;28;45359;-63
2022/10/06 15:31:49;;;;;;;;;2.25;2.25;;;;;;;;5055286;28;45559;-63
2022/10/06 15:34:16;;;;;;;;;2.50;1.50;;;;;;;;5054255;28;45388;-63
2022/10/06 15:36:42;;;;;;;;;4.50;3.75;;;;;;;;5055797;28;45478;-63
2022/10/06 15:39:09;;;;;;;;;9.67;6.00;;;;;;;;5051407;28;45369;-63
2022/10/06 15:41:35;;;;;;;;;5.00;2.00;;;;;;;;5054187;28;45421;-63
2022/10/06 15:44:00;;;;;;;;;1.00;1.00;;;;;;;;5044421;28;45517;-63
2022/10/06 15:46:25;;;;;;;;;2.00;2.00;;;;;;;;5045218;28;46206;-63
2022/10/06 15:48:52;;;;;;;;;2.00;1.00;;;;;;;;5058749;28;45275;-63
2022/10/06 15:51:17;;;;;;;;;1.00;1.00;;;;;;;;5043740;28;45318;-62
2022/10/06 15:53:44;;;;;;;;;0.25;0.25;;;;;;;;5057651;28;45406;-62
2022/10/06 15:56:09;;;;;;;;;5.00;0.00;;;;;;;;5053802;28;47213;-63
2022/10/06 15:58:34;;;;;;;;;0.75;0.75;;;;;;;;5056440;28;45255;-62
2022/10/06 16:01:00;;;;;;;;;1.00;1.00;;;;;;;;5044037;28;45358;-62
2022/10/06 16:03:35;;;;;;;;;3.00;1.75;;;;;;;;5046886;28;45397;-63
2022/10/06 16:06:03;;;;;;;;;5.25;1.00;;;;;;;;5040347;28;46251;-62
2022/10/06 16:08:31;;;;;;;;;2.00;0.25;;;;;;;;5050071;28;45325;-63
2022/10/06 16:10:58;;;;;;;;;1.25;0.00;;;;;;;;5048783;28;45213;-63
2022/10/06 16:13:23;;;;;;;;;1.50;1.00;;;;;;;;5052351;28;45901;-63
2022/10/06 16:15:54;;;;;;;;;5.33;1.67;;;;;;;;5040235;28;45436;-63
2022/10/06 16:18:20;;;;;;;;;3.00;1.00;;;;;;;;5043522;28;45269;-62
2022/10/06 16:20:50;;;;;;;;;2.50;1.50;;;;;;;;5054277;28;45578;-62
2022/10/06 16:23:15;;;;;;;;;2.00;0.50;;;;;;;;5047731;28;45209;-62
2022/10/06 16:25:40;;;;;;;;;3.75;1.00;;;;;;;;5053593;28;45264;-62
2022/10/06 16:28:05;;;;;;;;;6.67;1.33;;;;;;;;5049138;28;45393;-62
2022/10/06 16:30:30;;;;;;;;;3.00;3.00;;;;;;;;5053148;28;45431;-62
2022/10/06 16:32:56;;;;;;;;;2.25;1.50;;;;;;;;5045611;28;45422;-63
2022/10/06 16:35:21;;;;;;;;;1.33;1.00;;;;;;;;5055419;28;45432;-63
2022/10/06 16:37:48;;;;;;;;;1.75;0.00;;;;;;;;5051369;28;45362;-62
2022/10/06 16:40:16;;;;;;;;;2.50;1.00;;;;;;;;5055327;28;45497;-62
2022/10/06 16:42:43;;;;;;;;;2.33;2.00;;;;;;;;5044317;28;45478;-62
2022/10/06 16:45:09;;;;;;;;;3.67;2.33;;;;;;;;5056778;28;45363;-62
2022/10/06 16:47:34;;;;;;;;;8.67;3.33;;;;;;;;5058522;28;45296;-62
2022/10/06 16:49:59;;;;;;;;;3.00;2.33;;;;;;;;5055917;28;45233;-62
2022/10/06 16:52:24;;;;;;;;;9.67;4.00;;;;;;;;5054454;28;45262;-63
2022/10/06 16:54:49;;;;;;;;;3.00;1.67;;;;;;;;5050494;28;46034;-63
2022/10/06 16:57:15;;;;;;;;;5.33;1.67;;;;;;;;5054025;28;45474;-62
2022/10/06 16:59:40;;;;;;;;;4.00;3.00;;;;;;;;5055036;28;45560;-62
2022/10/06 17:02:05;;;;;;;;;1.00;1.00;;;;;;;;5035527;28;45495;-62
2022/10/06 17:04:30;;;;;;;;;1.00;1.00;;;;;;;;5042802;28;45942;-62
2022/10/06 17:06:56;;;;;;;;;4.00;1.00;;;;;;;;5056998;28;45315;-61
2022/10/06 17:09:23;;;;;;;;;16.33;10.33;;;;;;;;5057713;28;45780;-62
2022/10/06 17:11:52;;;;;;;;;15.00;6.67;;;;;;;;5056146;28;45951;-62
2022/10/06 17:14:18;;;;;;;;;11.33;6.00;;;;;;;;5045688;28;46064;-62
2022/10/06 17:16:44;;;;;;;;;6.67;5.00;;;;;;;;5057363;28;45508;-62
2022/10/06 17:19:10;;;;;;;;;7.33;4.33;;;;;;;;5058141;28;45367;-62
2022/10/06 17:21:35;;;;;;;;;7.67;3.33;;;;;;;;5054162;28;45505;-62
2022/10/06 17:24:02;;;;;;;;;7.67;3.00;;;;;;;;5053561;28;45271;-61
2022/10/06 17:26:28;;;;;;;;;7.00;3.00;;;;;;;;5041804;28;46965;-61
2022/10/06 17:28:55;;;;;;;;;4.00;1.00;;;;;;;;5031654;28;45509;-62
2022/10/06 17:31:26;;;;;;;;;4.00;2.00;;;;;;;;5049582;28;46513;-62
2022/10/06 17:33:52;;;;;;;;;4.67;4.00;;;;;;;;5049391;28;45877;-62
2022/10/06 17:36:22;;;;;;;;;21.67;11.00;;;;;;;;5045503;28;45479;-62
2022/10/06 17:39:05;;;;;;;;;7.00;5.33;;;;;;;;5045805;28;45269;-62
2022/10/06 17:41:32;;;;;;;;;7.67;5.33;;;;;;;;5050043;28;45378;-62
2022/10/06 17:44:02;;;;;;;;;15.00;4.00;;;;;;;;5050631;28;46059;-61
2022/10/06 17:46:28;;;;;;;;;6.75;4.50;;;;;;;;5056430;28;45715;-63
2022/10/06 17:48:54;;;;;;;;;11.67;6.00;;;;;;;;5054732;28;45392;-62
2022/10/06 17:51:21;;;;;;;;;6.33;3.67;;;;;;;;5045926;28;45551;-61
2022/10/06 17:53:48;;;;;;;;;4.00;4.00;;;;;;;;5047579;28;45379;-62
2022/10/06 17:56:14;;;;;;;;;8.67;4.00;;;;;;;;5053741;28;45291;-61
2022/10/06 17:58:44;;;;;;;;;7.33;3.33;;;;;;;;5050581;28;46776;-61
2022/10/06 18:01:16;;;;;;;;;6.67;4.00;;;;;;;;5044304;28;45406;-63
2022/10/06 18:03:42;;;;;;;;;3.67;3.67;;;;;;;;5039649;28;45697;-62
2022/10/06 18:06:10;;;;;;;;;6.67;4.33;;;;;;;;5052549;28;45427;-61
2022/10/06 18:08:37;;;;;;;;;5.33;3.00;;;;;;;;5055020;28;45392;-61
2022/10/06 18:13:48;;;;;;;;;1.67;0.00;;;;;;;;5052362;28;45237;-62
2022/10/06 18:16:24;;;;;;;;;4.67;4.00;;;;;;;;5052464;28;46066;-61
2022/10/06 18:18:53;;;;;;;;;3.67;3.67;;;;;;;;5056376;28;45481;-63
2022/10/06 18:21:23;;;;;;;;;6.00;6.00;;;;;;;;5050698;28;45476;-63
2022/10/06 18:23:48;;;;;;;;;8.33;4.33;;;;;;;;5054907;28;45296;-64
2022/10/06 18:26:16;;;;;;;;;7.00;5.00;;;;;;;;5037154;28;46194;-61
2022/10/06 18:28:42;;;;;;;;;7.00;6.00;;;;;;;;5050347;28;45532;-61
2022/10/06 18:31:08;;;;;;;;;7.00;6.00;;;;;;;;5049860;28;45415;-61
2022/10/06 18:33:33;;;;;;;;;6.00;6.00;;;;;;;;5051138;28;46035;-60
2022/10/06 18:36:01;;;;;;;;;6.00;5.00;;;;;;;;5035825;28;45593;-61
2022/10/06 18:38:26;;;;;;;;;7.00;7.00;;;;;;;;5050551;28;45462;-61
2022/10/06 18:40:52;;;;;;;;;11.33;8.00;;;;;;;;5054492;28;45374;-61
2022/10/06 18:43:17;;;;;;;;;8.33;7.00;;;;;;;;5054461;28;46154;-62
2022/10/06 18:51:11;;;;;;;;;13.67;9.67;;;;;;;;5051655;28;45351;-62
2022/10/06 18:53:37;;;;;;;;;14.00;12.00;;;;;;;;5051891;28;45531;-62
2022/10/06 18:56:02;;;;;;;;;12.00;11.33;;;;;;;;5049423;28;45548;-62
2022/10/06 18:58:27;;;;;;;;;17.33;12.00;;;;;;;;5055239;28;45566;-62
2022/10/06 19:00:53;;;;;;;;;15.33;10.67;;;;;;;;5055747;28;45884;-62
2022/10/06 19:03:18;;;;;;;;;13.67;13.33;;;;;;;;5038057;28;47014;-62
2022/10/06 19:05:51;;;;;;;;;13.33;12.00;;;;;;;;5047319;28;45306;-62
2022/10/06 19:08:16;;;;;;;;;15.33;13.33;;;;;;;;5049964;28;45376;-62
2022/10/06 19:11:40;;;;;;;;;18.33;14.67;;;;;;;;5052356;28;45725;-62
2022/10/06 19:13:26;;;;;;;;;17.67;14.33;;;;;;;;5042670;28;46828;-62
2022/10/06 19:15:52;;;;;;;;;19.67;13.00;;;;;;;;5044397;28;45423;-61
2022/10/06 19:18:19;;;;;;;;;14.00;13.00;;;;;;;;5042713;28;45645;-60
2022/10/06 19:20:50;;;;;;;;;13.00;12.00;;;;;;;;5047359;28;45550;-61
2022/10/06 19:23:15;;;;;;;;;20.67;13.00;;;;;;;;5044197;28;45939;-61
2022/10/06 19:25:42;;;;;;;;;19.33;14.33;;;;;;;;5050309;28;45403;-62
2022/10/06 19:28:07;;;;;;;;;17.67;15.33;;;;;;;;5030020;28;45422;-61
2022/10/06 19:30:32;;;;;;;;;16.67;14.67;;;;;;;;5053581;28;45555;-61
2022/10/06 19:32:57;;;;;;;;;17.67;14.00;;;;;;;;5055508;28;46204;-61
2022/10/06 19:35:22;;;;;;;;;19.00;16.00;;;;;;;;5034674;28;45508;-61
2022/10/06 19:37:49;;;;;;;;;19.67;16.33;;;;;;;;5031806;28;45599;-60
2022/10/06 19:40:15;;;;;;;;;24.00;21.00;;;;;;;;5052617;28;45547;-61
2022/10/06 19:42:46;;;;;;;;;35.67;21.33;;;;;;;;5046673;28;46000;-60